Time;durP1;ratioP1;P1;durP2;ratioP2;P2;SDS_P1;SDS_P2;PMS_P1;PMS_P2;Temp;Humidity;BMP_temperature;BMP_pressure;BME280_temperature;BME280_humidity;BME280_pressure;Samples;Min_cycle;Max_cycle;Signal;HPM_P1;HPM_P2
2022/05/27 00:02:02;;;;;;;2.05;1.20;;;18.40;54.90;;;;;;5035101;28;20387;-75
2022/05/27 00:04:28;;;;;;;2.95;1.35;;;18.40;54.70;;;;;;5032982;28;20026;-76
2022/05/27 00:06:54;;;;;;;3.50;1.30;;;18.40;55.10;;;;;;5031440;28;20039;-75
2022/05/27 00:09:20;;;;;;;3.97;1.60;;;18.40;54.70;;;;;;5031668;28;20025;-72
2022/05/27 00:11:46;;;;;;;3.15;1.33;;;18.40;54.60;;;;;;5032439;28;20029;-73
2022/05/27 00:14:11;;;;;;;4.53;2.25;;;18.40;54.70;;;;;;5032236;28;20036;-71
2022/05/27 00:16:37;;;;;;;6.45;1.75;;;18.40;54.90;;;;;;5032363;28;20602;-73
2022/05/27 00:19:02;;;;;;;4.03;1.95;;;18.50;54.70;;;;;;5032362;28;20024;-74
2022/05/27 00:21:28;;;;;;;1.98;1.23;;;18.50;54.60;;;;;;5032417;28;20029;-74
2022/05/27 00:23:54;;;;;;;2.65;1.65;;;18.50;54.40;;;;;;5032236;28;20057;-74
2022/05/27 00:26:19;;;;;;;3.40;1.48;;;18.50;54.10;;;;;;5032295;28;20057;-74
2022/05/27 00:28:45;;;;;;;4.47;1.38;;;18.60;54.20;;;;;;5032054;28;20029;-74
2022/05/27 00:31:11;;;;;;;4.28;1.25;;;18.50;54.40;;;;;;5032285;28;20503;-74
2022/05/27 00:33:38;;;;;;;7.38;1.58;;;18.50;54.60;;;;;;5032345;28;20021;-74
2022/05/27 00:36:10;;;;;;;1.73;1.00;;;18.60;54.20;;;;;;5032420;28;20071;-73
2022/05/27 00:38:38;;;;;;;3.42;1.05;;;18.50;54.30;;;;;;5031989;28;20077;-73
2022/05/27 00:41:04;;;;;;;3.80;1.63;;;18.50;54.30;;;;;;5032052;28;20030;-73
2022/05/27 00:43:30;;;;;;;5.82;1.30;;;18.50;54.70;;;;;;5032025;28;20561;-73
2022/05/27 00:46:11;;;;;;;3.28;1.38;;;18.60;54.50;;;;;;5030867;28;20060;-73
2022/05/27 00:48:39;;;;;;;3.50;1.38;;;18.60;54.20;;;;;;5032226;28;20025;-73
2022/05/27 00:51:14;;;;;;;2.70;1.30;;;18.60;54.10;;;;;;5032217;28;20022;-73
2022/05/27 00:53:54;;;;;;;2.65;1.27;;;18.60;54.00;;;;;;5032534;28;20442;-74
2022/05/27 00:56:23;;;;;;;3.95;1.67;;;18.60;54.00;;;;;;5030804;28;20029;-74
2022/05/27 00:58:54;;;;;;;3.17;1.23;;;18.60;53.90;;;;;;5032165;28;20029;-73
2022/05/27 01:01:20;;;;;;;4.30;1.38;;;18.60;54.20;;;;;;5031995;28;20029;-75
2022/05/27 01:03:46;;;;;;;4.57;1.35;;;18.60;54.30;;;;;;5030385;28;20407;-77
2022/05/27 01:06:12;;;;;;;3.38;1.40;;;18.60;54.20;;;;;;5031705;28;20036;-76
2022/05/27 01:08:37;;;;;;;4.68;1.40;;;18.60;54.30;;;;;;5035362;28;20457;-74
2022/05/27 01:11:29;;;;;;;4.55;1.30;;;18.60;54.40;;;;;;5036424;28;20675;-74
2022/05/27 01:13:57;;;;;;;4.43;1.33;;;18.60;54.50;;;;;;5004889;28;20025;-74
2022/05/27 01:16:48;;;;;;;3.40;1.65;;;18.60;54.40;;;;;;5031854;28;20458;-73
2022/05/27 01:22:53;;;;;;;3.67;1.60;;;18.60;54.30;;;;;;5012763;28;20036;-74
2022/05/27 01:25:19;;;;;;;2.72;1.13;;;18.60;54.50;;;;;;5033673;28;20056;-75
2022/05/27 01:28:22;;;;;;;3.25;1.10;;;18.50;54.60;;;;;;5030521;28;20014;-75
2022/05/27 01:31:00;;;;;;;5.72;1.80;;;18.50;54.90;;;;;;5030684;28;20071;-74
2022/05/27 01:33:44;;;;;;;4.03;1.40;;;18.50;54.80;;;;;;5031806;28;20053;-73
2022/05/27 01:36:40;;;;;;;2.95;1.00;;;18.60;54.80;;;;;;5032518;28;20017;-75
2022/05/27 01:39:12;;;;;;;4.85;1.27;;;18.70;54.60;;;;;;5030154;28;20428;-75
2022/05/27 01:41:53;;;;;;;3.40;1.63;;;18.70;54.90;;;;;;5028089;28;20506;-75
2022/05/27 01:44:50;;;;;;;6.00;2.10;;;18.60;54.80;;;;;;5018499;28;20407;-75
2022/05/27 01:47:29;;;;;;;5.43;2.08;;;18.50;54.90;;;;;;4987339;28;20037;-75
2022/05/27 01:50:05;;;;;;;5.15;1.73;;;18.50;55.00;;;;;;5006191;28;20034;-76
2022/05/27 01:52:46;;;;;;;4.70;1.58;;;18.50;55.00;;;;;;5010116;28;20484;-76
2022/05/27 01:55:37;;;;;;;3.13;1.30;;;18.50;55.10;;;;;;5026918;28;20104;-75
2022/05/27 01:58:41;;;;;;;6.03;1.75;;;18.50;55.40;;;;;;5002750;28;20029;-76
2022/05/27 02:01:12;;;;;;;4.90;1.40;;;18.50;55.20;;;;;;5013801;28;20045;-75
2022/05/27 02:03:44;;;;;;;5.90;1.40;;;18.50;55.40;;;;;;5029902;28;20479;-75
2022/05/27 02:06:31;;;;;;;7.00;1.55;;;18.50;55.30;;;;;;5031442;28;20037;-75
2022/05/27 02:09:04;;;;;;;2.33;1.40;;;18.60;55.40;;;;;;5031084;28;20433;-75
2022/05/27 02:11:30;;;;;;;4.30;1.58;;;18.50;55.20;;;;;;5031003;28;20026;-76
2022/05/27 02:14:28;;;;;;;5.15;1.30;;;18.50;55.80;;;;;;5042306;23;20144;-73
2022/05/27 02:17:03;;;;;;;5.97;1.77;;;18.50;55.60;;;;;;5019118;28;20021;-70
2022/05/27 02:19:50;;;;;;;3.70;1.45;;;18.50;55.70;;;;;;5028901;28;20064;-70
2022/05/27 02:22:23;;;;;;;5.95;1.45;;;18.50;55.70;;;;;;5039022;28;20022;-70
2022/05/27 02:25:06;;;;;;;3.55;1.55;;;18.50;55.60;;;;;;5037490;28;20028;-71
2022/05/27 02:27:39;;;;;;;6.35;1.95;;;18.50;55.60;;;;;;5046165;28;20024;-71
2022/05/27 02:30:12;;;;;;;4.32;1.33;;;18.50;55.90;;;;;;5019649;28;20033;-71
2022/05/27 02:32:41;;;;;;;2.55;1.13;;;18.50;55.70;;;;;;5022885;28;20025;-72
2022/05/27 02:35:17;;;;;;;4.93;1.77;;;18.50;56.00;;;;;;5049272;28;20074;-72
2022/05/27 02:37:49;;;;;;;5.53;1.35;;;18.50;56.30;;;;;;5020928;28;20135;-71
2022/05/27 02:40:21;;;;;;;6.00;1.60;;;18.60;55.80;;;;;;5045806;28;20475;-72
2022/05/27 02:43:07;;;;;;;7.00;2.08;;;18.50;55.80;;;;;;5046694;28;20251;-71
2022/05/27 02:46:19;;;;;;;6.75;1.45;;;18.50;56.00;;;;;;5038182;28;20021;-71
2022/05/27 02:49:09;;;;;;;3.50;1.17;;;18.50;56.40;;;;;;4981346;28;20041;-71
2022/05/27 02:52:09;;;;;;;4.68;1.42;;;18.50;56.20;;;;;;5050187;28;20083;-70
2022/05/27 02:54:45;;;;;;;4.57;1.20;;;18.50;56.30;;;;;;5044754;28;20248;-71
2022/05/27 02:57:23;;;;;;;6.35;1.40;;;18.50;56.40;;;;;;5019087;28;20080;-71
2022/05/27 02:59:51;;;;;;;6.53;1.50;;;18.50;56.40;;;;;;5022712;28;20017;-71
2022/05/27 03:02:17;;;;;;;6.28;1.58;;;18.50;56.30;;;;;;5045113;28;20021;-71
2022/05/27 03:04:48;;;;;;;6.25;1.50;;;18.50;56.30;;;;;;5045604;28;20475;-71
2022/05/27 03:07:45;;;;;;;6.40;1.48;;;18.50;56.90;;;;;;5036555;28;20399;-70
2022/05/27 03:10:41;;;;;;;5.18;1.58;;;18.50;56.60;;;;;;5011269;28;20029;-70
2022/05/27 03:13:16;;;;;;;3.13;1.48;;;18.50;56.50;;;;;;5037922;28;20021;-72
2022/05/27 03:15:54;;;;;;;6.68;1.42;;;18.50;56.60;;;;;;5020885;28;20093;-71
2022/05/27 03:18:37;;;;;;;4.00;1.45;;;18.50;56.60;;;;;;5043875;28;20100;-71
2022/05/27 03:21:10;;;;;;;4.93;1.40;;;18.40;56.70;;;;;;5013971;28;20025;-71
2022/05/27 03:23:35;;;;;;;6.72;1.52;;;18.40;56.80;;;;;;5036300;28;20040;-71
2022/05/27 03:26:20;;;;;;;5.28;1.50;;;18.40;56.80;;;;;;5046905;28;20038;-70
2022/05/27 03:29:09;;;;;;;4.88;1.70;;;18.40;56.80;;;;;;5044921;28;20033;-71
2022/05/27 03:31:47;;;;;;;3.30;1.17;;;18.30;57.20;;;;;;5036534;28;20030;-70
2022/05/27 03:34:29;;;;;;;5.35;1.63;;;18.30;57.20;;;;;;5045162;28;20101;-71
2022/05/27 03:37:01;;;;;;;;;;;18.40;57.10;;;;;;5047503;28;20025;-71
2022/05/27 03:39:47;;;;;;;4.55;1.33;;;18.40;57.40;;;;;;5036223;28;19912;-71
2022/05/27 03:42:13;;;;;;;5.65;1.60;;;18.30;57.40;;;;;;5045707;28;20057;-71
2022/05/27 03:45:08;;;;;;;2.88;1.05;;;18.40;57.20;;;;;;5026251;28;20021;-72
2022/05/27 03:47:36;;;;;;;4.10;1.73;;;18.30;57.50;;;;;;5050415;28;20092;-71
2022/05/27 03:50:03;;;;;;;4.88;1.85;;;18.30;57.40;;;;;;5045528;28;20032;-72
2022/05/27 03:52:39;;;;;;;4.65;1.48;;;18.30;57.50;;;;;;5051686;28;20030;-71
2022/05/27 03:55:08;;;;;;;4.63;1.55;;;18.30;57.60;;;;;;5051477;28;20501;-71
2022/05/27 03:57:33;;;;;;;5.68;1.63;;;18.30;57.60;;;;;;5036867;28;20502;-70
2022/05/27 03:59:59;;;;;;;4.38;1.50;;;18.30;57.70;;;;;;5046821;28;20025;-70
2022/05/27 04:02:24;;;;;;;5.18;1.33;;;18.30;57.70;;;;;;5041887;28;20029;-71
2022/05/27 04:04:50;;;;;;;3.40;1.50;;;18.30;58.00;;;;;;5039253;28;20025;-71
2022/05/27 04:07:15;;;;;;;4.57;1.20;;;18.40;58.20;;;;;;5047662;28;20048;-70
2022/05/27 04:09:41;;;;;;;4.50;1.95;;;18.40;57.70;;;;;;5036044;28;20021;-71
2022/05/27 04:12:07;;;;;;;2.70;1.15;;;18.30;57.70;;;;;;5045261;28;20069;-70
2022/05/27 04:14:33;;;;;;;5.22;2.00;;;18.30;57.90;;;;;;5039270;28;20047;-71
2022/05/27 04:19:44;;;;;;;3.95;1.08;;;18.30;57.80;;;;;;5021451;28;20401;-72
2022/05/27 04:22:10;;;;;;;4.18;1.17;;;18.30;57.90;;;;;;5045035;28;20021;-70
2022/05/27 04:24:36;;;;;;;5.50;1.77;;;18.30;58.10;;;;;;5025424;28;20070;-70
2022/05/27 04:27:13;;;;;;;2.90;1.60;;;18.30;58.00;;;;;;5037517;28;20025;-71
2022/05/27 04:29:44;;;;;;;3.85;1.45;;;18.20;58.50;;;;;;5048669;28;20105;-70
2022/05/27 04:32:10;;;;;;;4.43;1.60;;;18.40;58.20;;;;;;5039780;28;20040;-71
2022/05/27 04:34:36;;;;;;;6.78;1.40;;;18.40;58.10;;;;;;5040717;28;20030;-71
2022/05/27 04:37:01;;;;;;;4.53;1.42;;;18.30;58.60;;;;;;5046623;28;20029;-73
2022/05/27 04:39:27;;;;;;;3.10;1.25;;;18.40;58.20;;;;;;5035293;28;20060;-71
2022/05/27 04:41:53;;;;;;;3.28;1.20;;;18.30;58.30;;;;;;5047148;28;20036;-71
2022/05/27 04:44:18;;;;;;;3.58;1.25;;;18.30;58.50;;;;;;5040429;28;20025;-71
2022/05/27 04:46:45;;;;;;;3.90;1.42;;;18.40;58.70;;;;;;5050845;28;20070;-71
2022/05/27 04:49:50;;;;;;;5.90;1.80;;;18.40;58.40;;;;;;5035558;28;20022;-71
2022/05/27 04:51:58;;;;;;;5.57;1.38;;;18.30;59.00;;;;;;5023314;28;20119;-71
2022/05/27 04:54:24;;;;;;;5.35;1.75;;;18.30;61.20;;;;;;5042010;28;20472;-70
2022/05/27 04:56:49;;;;;;;3.80;1.50;;;18.20;62.50;;;;;;5044552;28;20116;-71
2022/05/27 04:59:15;;;;;;;4.43;1.67;;;18.10;63.90;;;;;;5034846;28;20108;-71
2022/05/27 05:01:40;;;;;;;1.77;1.27;;;18.00;64.10;;;;;;5001136;28;20025;-71
2022/05/27 05:04:06;;;;;;;3.42;1.42;;;18.00;64.60;;;;;;5026629;28;20021;-71
2022/05/27 05:06:32;;;;;;;5.70;1.55;;;17.90;64.90;;;;;;5042059;28;20463;-71
2022/05/27 05:08:57;;;;;;;6.18;2.13;;;17.80;65.40;;;;;;5037277;28;20102;-71
2022/05/27 05:11:23;;;;;;;3.47;1.67;;;17.80;66.50;;;;;;5048012;28;20107;-70
2022/05/27 05:13:48;;;;;;;4.40;1.55;;;17.60;66.80;;;;;;5035908;28;20375;-71
2022/05/27 05:16:14;;;;;;;4.28;1.85;;;17.60;66.30;;;;;;5043102;28;20041;-70
2022/05/27 05:18:40;;;;;;;2.40;1.35;;;17.50;67.60;;;;;;5042844;28;20487;-70
2022/05/27 05:21:05;;;;;;;4.70;1.55;;;17.50;68.40;;;;;;5036177;28;20106;-69
2022/05/27 05:23:31;;;;;;;4.28;1.88;;;17.50;68.30;;;;;;5029839;28;20490;-70
2022/05/27 05:25:56;;;;;;;5.47;1.95;;;17.50;69.10;;;;;;5019267;28;20032;-70
2022/05/27 05:28:22;;;;;;;3.25;1.90;;;17.50;69.30;;;;;;5041764;28;20025;-70
2022/05/27 05:30:47;;;;;;;2.55;1.50;;;17.50;69.20;;;;;;5043806;28;20032;-71
2022/05/27 05:33:13;;;;;;;5.13;1.80;;;17.50;69.00;;;;;;5035034;28;20120;-71
2022/05/27 05:35:39;;;;;;;8.63;3.28;;;17.50;68.60;;;;;;5029796;28;20101;-71
2022/05/27 05:38:05;;;;;;;7.18;2.67;;;17.50;68.70;;;;;;5037839;28;20475;-70
2022/05/27 05:40:30;;;;;;;5.10;2.28;;;17.50;68.80;;;;;;5040831;28;20040;-71
2022/05/27 05:42:56;;;;;;;5.03;1.88;;;17.60;69.40;;;;;;5045059;28;20483;-72
2022/05/27 05:45:22;;;;;;;10.15;2.50;;;17.50;69.50;;;;;;5034284;28;20033;-71
2022/05/27 05:47:48;;;;;;;6.82;2.45;;;17.40;71.30;;;;;;5046258;28;20022;-71
2022/05/27 05:50:15;;;;;;;4.50;2.60;;;17.40;72.10;;;;;;5021337;28;20047;-70
2022/05/27 05:52:41;;;;;;;6.18;2.38;;;17.30;71.60;;;;;;5039206;28;20522;-69
2022/05/27 05:55:07;;;;;;;5.60;2.30;;;17.10;72.30;;;;;;5046344;28;20033;-69
2022/05/27 05:57:41;;;;;;;5.18;2.25;;;17.10;73.30;;;;;;5033926;28;20402;-70
2022/05/27 06:00:09;;;;;;;4.18;2.25;;;17.10;72.70;;;;;;5043840;28;20053;-71
2022/05/27 06:02:35;;;;;;;3.42;1.90;;;17.10;73.00;;;;;;5034287;28;20491;-71
2022/05/27 06:05:03;;;;;;;17.80;9.50;;;17.00;73.50;;;;;;5013126;28;20029;-69
2022/05/27 06:07:30;;;;;;;16.95;8.55;;;17.10;73.30;;;;;;5048504;28;20136;-72
2022/05/27 06:09:55;;;;;;;6.82;2.38;;;17.20;73.40;;;;;;5022267;28;20025;-70
2022/05/27 06:12:23;;;;;;;10.52;3.92;;;17.10;74.70;;;;;;5045413;28;20032;-70
2022/05/27 06:14:50;;;;;;;6.68;3.78;;;17.20;74.20;;;;;;5047352;28;20029;-72
2022/05/27 06:17:15;;;;;;;54.30;28.67;;;17.30;74.30;;;;;;5037763;28;20042;-72
2022/05/27 06:19:41;;;;;;;15.13;3.40;;;17.40;73.60;;;;;;5032892;28;20098;-71
2022/05/27 06:22:07;;;;;;;8.48;3.45;;;17.40;73.20;;;;;;5041430;28;20032;-70
2022/05/27 06:24:33;;;;;;;13.05;5.75;;;17.50;73.30;;;;;;5042664;28;20017;-71
2022/05/27 06:26:58;;;;;;;7.72;3.72;;;17.70;73.40;;;;;;5046472;28;20047;-70
2022/05/27 06:34:52;;;;;;;7.57;3.10;;;18.00;72.30;;;;;;5045751;28;20039;-70
2022/05/27 06:37:21;;;;;;;3.08;2.00;;;18.00;71.90;;;;;;5036543;28;20045;-70
2022/05/27 06:39:48;;;;;;;9.70;2.28;;;18.00;71.60;;;;;;5051150;28;20021;-70
2022/05/27 06:42:15;;;;;;;12.02;3.75;;;18.00;71.90;;;;;;5046139;28;20071;-75
2022/05/27 06:44:41;;;;;;;7.78;2.00;;;18.00;72.60;;;;;;5037528;28;20022;-75
2022/05/27 06:47:08;;;;;;;8.75;2.60;;;18.10;71.70;;;;;;5019331;28;20036;-75
2022/05/27 06:49:37;;;;;;;14.85;3.00;;;18.00;71.10;;;;;;5049469;28;20018;-74
2022/05/27 06:52:04;;;;;;;6.40;2.00;;;17.80;71.50;;;;;;5041989;28;20033;-76
2022/05/27 06:54:29;;;;;;;7.10;3.95;;;17.80;72.20;;;;;;5053746;28;20029;-74
2022/05/27 06:56:55;;;;;;;7.10;2.42;;;17.80;72.70;;;;;;5037811;28;20468;-76
2022/05/27 06:59:22;;;;;;;5.22;1.77;;;18.00;72.20;;;;;;5049566;28;20033;-76
2022/05/27 07:01:49;;;;;;;7.47;2.55;;;18.10;70.50;;;;;;5047322;28;20034;-72
2022/05/27 07:04:14;;;;;;;257.90;198.35;;;18.00;70.90;;;;;;5042810;28;20029;-69
2022/05/27 07:06:43;;;;;;;61.88;40.17;;;18.00;71.30;;;;;;5040014;28;20087;-70
2022/05/27 07:09:10;;;;;;;125.80;69.60;;;18.00;73.00;;;;;;5050249;28;20390;-69
2022/05/27 07:11:36;;;;;;;200.57;125.55;;;18.00;72.60;;;;;;5038333;28;20463;-69
2022/05/27 07:14:02;;;;;;;68.97;40.65;;;17.90;73.00;;;;;;5045155;28;20033;-71
2022/05/27 07:16:28;;;;;;;44.42;23.88;;;17.80;72.50;;;;;;5039310;28;20032;-69
2022/05/27 07:18:54;;;;;;;294.85;177.32;;;17.90;72.90;;;;;;5048536;28;20021;-71
2022/05/27 07:21:20;;;;;;;24.30;11.73;;;17.70;74.50;;;;;;5036759;28;20762;-73
2022/05/27 07:23:54;;;;;;;37.40;20.83;;;17.70;75.40;;;;;;5053396;28;20041;-79
2022/05/27 07:26:24;;;;;;;244.18;126.70;;;17.70;74.80;;;;;;5025311;28;20041;-77
2022/05/27 07:28:50;;;;;;;15.82;8.00;;;17.70;75.50;;;;;;5033471;28;20035;-75
2022/05/27 07:31:17;;;;;;;41.67;21.70;;;17.80;75.60;;;;;;5035073;28;20495;-74
2022/05/27 07:33:44;;;;;;;28.55;14.23;;;17.70;75.80;;;;;;5046460;28;20025;-75
2022/05/27 07:36:10;;;;;;;10.98;6.32;;;17.60;76.20;;;;;;5023639;28;20018;-76
2022/05/27 07:38:41;;;;;;;35.13;16.98;;;17.50;77.50;;;;;;5038295;28;20022;-75
2022/05/27 07:41:07;;;;;;;19.13;9.43;;;17.20;76.80;;;;;;5049304;28;20029;-72
2022/05/27 07:43:33;;;;;;;4.65;2.53;;;;;;;;;;5037111;28;20123;-74
2022/05/27 07:45:59;;;;;;;17.45;10.23;;;15.00;79.70;;;;;;5044456;28;20498;-74
2022/05/27 07:48:25;;;;;;;30.88;18.25;;;14.60;82.00;;;;;;5043071;28;20043;-74
2022/05/27 07:50:51;;;;;;;15.50;6.90;;;;;;;;;;5037274;28;20029;-73
2022/05/27 07:53:19;;;;;;;28.20;13.73;;;;;;;;;;5033373;28;20108;-73
2022/05/27 07:55:45;;;;;;;230.75;106.13;;;;;;;;;;5046535;28;20372;-73
2022/05/27 07:58:13;;;;;;;8.48;4.03;;;13.40;88.50;;;;;;5041104;28;20440;-74
2022/05/27 08:00:39;;;;;;;10.18;4.15;;;13.40;88.90;;;;;;5038235;28;20036;-74
2022/05/27 08:03:05;;;;;;;17.75;8.50;;;13.50;89.10;;;;;;5030674;28;20115;-73
2022/05/27 08:05:32;;;;;;;22.50;9.98;;;13.60;89.60;;;;;;5018731;28;20025;-74
2022/05/27 08:08:02;;;;;;;25.63;12.45;;;13.60;89.40;;;;;;5042843;28;20464;-74
2022/05/27 08:10:36;;;;;;;55.30;28.67;;;13.60;88.60;;;;;;5043713;28;20036;-75
2022/05/27 08:15:29;;;;;;;16.27;8.05;;;13.60;89.20;;;;;;5055851;22;20056;-72
2022/05/27 08:17:55;;;;;;;42.97;18.92;;;13.70;89.50;;;;;;5044072;28;20021;-74
2022/05/27 08:20:26;;;;;;;44.22;18.85;;;13.70;89.00;;;;;;5043306;28;20032;-72
2022/05/27 08:22:53;;;;;;;2.90;2.13;;;13.90;89.40;;;;;;5037141;28;20036;-72
2022/05/27 08:25:22;;;;;;;11.88;6.53;;;13.70;87.00;;;;;;5051071;28;20109;-73
2022/05/27 08:27:48;;;;;;;16.65;7.57;;;13.90;87.80;;;;;;5044190;28;20036;-76
2022/05/27 08:30:19;;;;;;;10.20;4.68;;;14.00;88.20;;;;;;5041459;28;20041;-74
2022/05/27 08:32:47;;;;;;;2.95;1.60;;;14.10;88.40;;;;;;5019943;28;20032;-72
2022/05/27 08:38:07;;;;;;;4.85;2.65;;;14.30;87.30;;;;;;5003489;28;20032;-72
2022/05/27 08:41:06;;;;;;;3.05;1.80;;;14.50;87.70;;;;;;5039199;28;20060;-72
2022/05/27 08:43:42;;;;;;;25.77;14.82;;;14.50;86.50;;;;;;5020256;28;20398;-71
2022/05/27 08:46:37;;;;;;;11.35;7.25;;;14.70;86.40;;;;;;5042415;28;20021;-72
2022/05/27 08:49:08;;;;;;;19.08;10.25;;;14.70;85.80;;;;;;5027624;28;20398;-70
2022/05/27 08:51:38;;;;;;;;;;;14.70;84.40;;;;;;5036496;28;20036;-72
2022/05/27 08:54:17;;;;;;;25.13;14.02;;;14.70;83.10;;;;;;5042412;28;19988;-74
2022/05/27 08:59:37;;;;;;;11.45;6.20;;;;;;;;;;5018545;28;20112;-72
2022/05/27 09:02:03;;;;;;;8.82;4.72;;;;;;;;;;5042663;28;20025;-71
2022/05/27 09:04:41;;;;;;;20.45;10.27;;;;;;;;;;5043369;28;20027;-72
2022/05/27 09:07:30;;;;;;;74.43;40.90;;;;;;;;;;5033825;28;20032;-72
2022/05/27 09:09:56;;;;;;;9.88;5.55;;;;;;;;;;5043504;28;20507;-72
2022/05/27 09:12:31;;;;;;;26.33;13.82;;;;;;;;;;5042538;28;20374;-75
2022/05/27 09:15:04;;;;;;;15.88;8.75;;;;;;;;;;5035159;28;20048;-73
2022/05/27 09:17:44;;;;;;;10.90;5.10;;;;;;;;;;5014713;28;20026;-74
2022/05/27 09:20:19;;;;;;;17.80;10.38;;;;;;;;;;5031078;28;20112;-73
2022/05/27 09:23:04;;;;;;;16.25;6.78;;;;;;;;;;5045190;28;20029;-70
2022/05/27 09:25:39;;;;;;;14.18;6.22;;;;;;;;;;5019496;28;20136;-71
2022/05/27 09:28:28;;;;;;;4.95;1.80;;;;;;;;;;5041108;28;20431;-70
2022/05/27 09:30:57;;;;;;;149.30;92.80;;;;;;;;;;5027302;28;20052;-70
2022/05/27 09:33:26;;;;;;;44.13;25.67;;;;;;;;;;5034381;28;20009;-71
2022/05/27 09:36:08;;;;;;;6.13;2.47;;;;;;;;;;5043548;28;20017;-70
2022/05/27 09:38:35;;;;;;;11.13;7.03;;;;;;;;;;5042875;28;20031;-71
2022/05/27 09:41:23;;;;;;;29.52;18.92;;;;;;;;;;5035257;28;20022;-68
2022/05/27 09:44:09;;;;;;;11.27;6.25;;;;;;;;;;5028095;28;20091;-72
2022/05/27 09:46:35;;;;;;;4.65;2.45;;;;;;;;;;5041916;28;20045;-72
2022/05/27 09:49:01;;;;;;;4.05;2.20;;;;;;;;;;5050891;28;20059;-73
2022/05/27 09:51:29;;;;;;;42.95;24.40;;;;;;;;;;5032433;28;20538;-74
2022/05/27 09:53:58;;;;;;;8.93;5.63;;;;;;;;;;5048031;28;20057;-75
2022/05/27 09:56:39;;;;;;;6.20;2.55;;;;;;;;;;5028820;28;20021;-74
2022/05/27 09:59:23;;;;;;;26.02;12.88;;;;;;;;;;5035282;28;20422;-74
2022/05/27 10:01:49;;;;;;;11.35;4.60;;;;;;;;;;5048147;28;20465;-75
2022/05/27 10:04:16;;;;;;;11.85;6.35;;;;;;;;;;5045218;28;20048;-73
2022/05/27 10:06:43;;;;;;;71.10;43.85;;;;;;;;;;5040465;28;20022;-71
2022/05/27 10:09:11;;;;;;;72.72;41.45;;;;;;;;;;5049947;28;20029;-71
2022/05/27 10:11:51;;;;;;;22.45;12.48;;;;;;;;;;5039432;28;20028;-73
2022/05/27 10:14:32;;;;;;;121.90;67.88;;;;;;;;;;5043799;28;20060;-72
2022/05/27 10:17:09;;;;;;;43.92;24.20;;;;;;;;;;5050148;28;20024;-70
2022/05/27 10:19:36;;;;;;;38.45;21.08;;;;;;;;;;5023836;28;20067;-71
2022/05/27 10:22:04;;;;;;;54.70;31.90;;;;;;;;;;5045583;28;20586;-71
2022/05/27 10:24:38;;;;;;;26.23;14.18;;;;;;;;;;5046254;28;20029;-71
2022/05/27 10:27:12;;;;;;;34.75;18.10;;;;;;;;;;5019314;28;20391;-70
2022/05/27 10:29:47;;;;;;;29.27;16.40;;;;;;;;;;5030887;28;20025;-72
2022/05/27 10:32:25;;;;;;;65.97;39.40;;;;;;;;;;5026437;28;20036;-71
2022/05/27 10:34:51;;;;;;;20.00;10.88;;;;;;;;;;5038638;28;20479;-71
2022/05/27 10:37:17;;;;;;;55.15;32.60;;;;;;;;;;5039158;28;20566;-71
2022/05/27 10:39:59;;;;;;;56.78;31.65;;;;;;;;;;5039549;28;20051;-71
2022/05/27 10:42:37;;;;;;;164.93;124.93;;;;;;;;;;5042448;28;20045;-70
2022/05/27 10:45:06;;;;;;;68.30;41.72;;;;;;;;;;5050172;28;20360;-72
2022/05/27 10:47:52;;;;;;;38.28;21.67;;;;;;;;;;5036686;28;20494;-71
2022/05/27 10:50:36;;;;;;;37.70;22.40;;;;;;;;;;5042907;28;20025;-70
2022/05/27 10:53:08;;;;;;;76.53;46.05;;;;;;;;;;5049633;28;20025;-72
2022/05/27 10:55:53;;;;;;;57.38;33.20;;;;;;;;;;5038164;28;20032;-70
2022/05/27 11:04:21;;;;;;;55.97;29.10;;;;;;;;;;5043530;28;20044;-72
2022/05/27 11:07:02;;;;;;;32.10;18.13;;;;;;;;;;5020849;28;20132;-71
2022/05/27 11:09:28;;;;;;;32.58;18.92;;;;;;;;;;5003340;28;20146;-71
2022/05/27 11:11:57;;;;;;;26.48;14.43;;;;;;;;;;5045655;28;20442;-72
2022/05/27 11:17:23;;;;;;;131.25;60.75;;;;;;;;;;5036055;28;20056;-70
2022/05/27 11:20:08;;;;;;;152.90;70.78;;;;;;;;;;5046435;28;20017;-72
2022/05/27 11:22:38;;;;;;;67.45;33.65;;;;;;;;;;5046004;28;20032;-74
2022/05/27 11:25:16;;;;;;;125.05;54.75;;;;;;;;;;5036233;28;20025;-72
2022/05/27 11:28:01;;;;;;;79.68;37.10;;;;;;;;;;5046639;28;20026;-72
2022/05/27 11:30:39;;;;;;;46.33;23.30;;;;;;;;;;5044982;28;20021;-71
2022/05/27 11:33:34;;;;;;;11.15;5.65;;;;;;;;;;5018544;28;20021;-71
2022/05/27 11:36:15;;;;;;;4.65;2.17;;;;;;;;;;5023493;28;20041;-73
2022/05/27 11:39:04;;;;;;;4.28;1.83;;;;;;;;;;5046041;28;20057;-72
2022/05/27 11:41:33;;;;;;;12.93;6.80;;;;;;;;;;5020853;28;20099;-74
2022/05/27 11:44:18;;;;;;;6.47;3.13;;;;;;;;;;5044820;28;20056;-73
2022/05/27 11:46:50;;;;;;;6.78;3.30;;;;;;;;;;5047053;28;20029;-72
2022/05/27 11:49:20;;;;;;;6.07;3.63;;;;;;;;;;5035491;28;20032;-75
2022/05/27 11:51:45;;;;;;;27.55;13.52;;;;;;;;;;5025129;28;20020;-70
2022/05/27 11:54:21;;;;;;;9.93;5.57;;;;;;;;;;5041728;28;20443;-71
2022/05/27 11:57:07;;;;;;;17.77;10.77;;;;;;;;;;5045393;28;20021;-71
2022/05/27 11:59:36;;;;;;;5.28;3.42;;;;;;;;;;5013027;28;20474;-73
2022/05/27 12:02:06;;;;;;;4.05;1.88;;;;;;;;;;5025216;28;20426;-72
2022/05/27 12:04:40;;;;;;;5.18;3.22;;;;;;;;;;5041964;28;20037;-71
2022/05/27 12:07:13;;;;;;;4.28;2.63;;;;;;;;;;5015474;28;20025;-70
2022/05/27 12:09:45;;;;;;;6.32;2.60;;;;;;;;;;5047187;28;20105;-73
2022/05/27 12:12:12;;;;;;;4.85;1.85;;;;;;;;;;5041738;28;20033;-71
2022/05/27 12:14:41;;;;;;;3.95;2.90;;;;;;;;;;5038745;28;20029;-71
2022/05/27 12:17:10;;;;;;;5.95;1.95;;;;;;;;;;5047515;28;20247;-70
2022/05/27 12:19:38;;;;;;;5.88;2.03;;;;;;;;;;5036768;28;20172;-73
2022/05/27 12:22:10;;;;;;;5.53;2.90;;;;;;;;;;5043045;28;20104;-71
2022/05/27 12:24:36;;;;;;;;;;;;;;;;;;5045359;28;20031;-72
2022/05/27 12:27:11;;;;;;;5.68;2.40;;;;;;;;;;5078962;28;20432;-71
2022/05/27 12:29:38;;;;;;;4.82;1.73;;;;;;;;;;5071801;28;20436;-72
2022/05/27 12:32:07;;;;;;;4.20;1.77;;;;;;;;;;5079622;28;20033;-71
2022/05/27 12:34:37;;;;;;;6.65;2.33;;;;;;;;;;5079997;28;20034;-72
2022/05/27 12:39:42;;;;;;;6.10;2.85;;;;;;;;;;5047648;22;20057;-65
2022/05/27 12:42:16;;;;;;;3.28;1.60;;;;;;;;;;5037150;28;20030;-69
2022/05/27 12:44:43;;;;;;;5.78;2.20;;;;;;;;;;5041082;28;20101;-70
2022/05/27 12:47:27;;;;;;;6.95;2.03;;;;;;;;;;5029293;28;20022;-69
2022/05/27 12:50:01;;;;;;;4.18;1.55;;;;;;;;;;5016262;28;20018;-71
2022/05/27 12:52:30;;;;;;;3.35;2.08;;;;;;;;;;5019930;28;20026;-71
2022/05/27 12:54:56;;;;;;;3.33;1.35;;;;;;;;;;5012288;28;20019;-69
2022/05/27 13:03:06;;;;;;;3.05;1.52;;;;;;;;;;5011058;28;20033;-72
2022/05/27 13:06:01;;;;;;;4.40;2.10;;;;;;;;;;5023280;28;20033;-70
2022/05/27 13:08:32;;;;;;;3.50;1.80;;;;;;;;;;5017742;28;20475;-70
2022/05/27 13:10:58;;;;;;;4.43;1.20;;;;;;;;;;5011634;28;20038;-71
2022/05/27 13:13:28;;;;;;;3.03;1.67;;;;;;;;;;5011719;28;20022;-72
2022/05/27 13:16:04;;;;;;;5.38;2.00;;;;;;;;;;5020510;28;20037;-71
2022/05/27 13:18:30;;;;;;;3.83;2.20;;;;;;;;;;5017834;28;20037;-70
2022/05/27 13:21:14;;;;;;;4.05;1.33;;;;;;;;;;5012032;28;20022;-71
2022/05/27 13:24:09;;;;;;;3.15;1.38;;;;;;;;;;4998908;28;20026;-74
2022/05/27 13:26:40;;;;;;;3.85;2.30;;;;;;;;;;4984959;28;20035;-71
2022/05/27 13:29:25;;;;;;;2.67;1.67;;;;;;;;;;5020634;28;20567;-72
2022/05/27 13:31:55;;;;;;;3.15;1.60;;;;;;;;;;5013149;28;20053;-72
2022/05/27 13:34:25;;;;;;;5.55;1.63;;;;;;;;;;5016409;28;20396;-69
2022/05/27 13:37:03;;;;;;;3.83;2.33;;;;;;;;;;5018649;28;20030;-70
2022/05/27 13:39:31;;;;;;;3.03;1.63;;;;;;;;;;4982075;28;20036;-78
2022/05/27 13:42:04;;;;;;;2.60;1.35;;;;;;;;;;5007452;28;20117;-80
2022/05/27 13:44:31;;;;;;;5.25;1.45;;;;;;;;;;5009665;28;20050;-76
2022/05/27 13:46:58;;;;;;;5.70;1.90;;;;;;;;;;4998149;28;20022;-78
2022/05/27 13:49:28;;;;;;;6.93;2.60;;;;;;;;;;4993160;28;20097;-76
2022/05/27 13:51:54;;;;;;;4.65;1.95;;;;;;;;;;4985234;28;20011;-77
2022/05/27 13:54:22;;;;;;;6.53;2.75;;;;;;;;;;5004672;28;20379;-75
2022/05/27 13:56:53;;;;;;;5.53;2.42;;;;;;;;;;4999288;28;20388;-75
2022/05/27 13:59:25;;;;;;;11.57;4.50;;;;;;;;;;5009501;28;20030;-75
2022/05/27 14:01:54;;;;;;;10.57;4.15;;;;;;;;;;5000828;28;20029;-76
2022/05/27 14:04:32;;;;;;;5.25;2.30;;;;;;;;;;5002922;28;20500;-77
2022/05/27 14:06:59;;;;;;;6.03;1.95;;;;;;;;;;5010167;28;20514;-73
2022/05/27 14:09:25;;;;;;;5.53;2.67;;;;;;;;;;4997301;28;20097;-75
2022/05/27 14:12:01;;;;;;;6.03;1.60;;;;;;;;;;5012454;28;20128;-77
2022/05/27 14:14:32;;;;;;;6.35;1.63;;;;;;;;;;5012958;28;20480;-76
2022/05/27 14:16:58;;;;;;;4.38;2.20;;;;;;;;;;4995712;28;20080;-76
2022/05/27 14:19:25;;;;;;;1.85;1.17;;;;;;;;;;4992934;28;20061;-83
2022/05/27 14:24:44;;;;;;;4.50;1.42;;;;;;;;;;5000035;28;20038;-76
2022/05/27 14:27:15;;;;;;;3.13;1.17;;;;;;;;;;5009667;28;20121;-78
2022/05/27 14:29:41;;;;;;;3.10;1.45;;;;;;;;;;4991103;28;20027;-79